Drake, Kentucky
Current Conditions -  °F | °C
As of 10:53 AM on Friday 19 Dec 2014 (Local Time) from KBWG Reporting Station
Clear Clear  
Wind Chill: 32°   Ceiling: Unl
Heat Index: 36°   Visibility: 7mi
Dew Point: 26°   Wind: 5mph
Humidity: 67%   Direction: 80°E
Pressure: 30.29"   Gusts: NA
Location:  36.84°N, 86.41°W
Report Text: KBWG 191653Z AUTO 08004KT 7SM CLR 02/M03 A3029 RMK AO2 SLP262 T00221033
Loading
Personal Weather Stations






























Interactive Weather Map New forecast layout! Learn more

10-Day Weather Forecast

Advertisements
Track Severe Weather on mobile